Maersk Shenzhen — D5LD3 — position and weather

sailwx.info

Track history (hours):
 
Tides and Currents Weather Stations Pressure Air Temp Water Temp Dewpoint Dewpoint Depression Visibility Wind Speed Wind Dir Waves Ship Positions

Maersk Shenzhen

Last reported at 2017-Oct-12 14:14 UTC. Time now 2017-Oct-20 01:42 UTC.
Position N 36°27' E 014°42'.

Length 324 m; draft 12.3 m.

Type: Cargo ship. MMSI: 636017474.

Date/timePositionNaut miles runAvg speedWind from/ knotsBaromVisibWave heightAir tempDewpointWater temp
2017-Oct-12 14:14N 36°27' E 014°42'517.6
2017-Oct-12 13:59N 36°28' E 014°36'917.8
2017-Oct-12 13:30N 36°30' E 014°26'918.0
2017-Oct-12 13:00N 36°33' E 014°15'917.9
2017-Oct-12 12:31N 36°36' E 014°05'1217.8
2017-Oct-12 11:51N 36°39' E 013°51'61717.2
2017-Oct-10 23:59N 36°53' E 001°01'816.8
2017-Oct-10 23:30N 36°52' E 000°51'816.5
2017-Oct-10 23:00N 36°50' E 000°41'917.1
2017-Oct-10 22:30N 36°48' E 000°31'917.2
2017-Oct-10 21:57N 36°46' E 000°19'817.3
2017-Oct-10 21:30N 36°45' E 000°10'917.4
2017-Oct-10 21:00N 36°43' W 000°01'1017.4
2017-Oct-10 20:27N 36°41' W 000°13'1317.3
2017-Oct-10 19:43N 36°38' W 000°28'617.4
2017-Oct-10 19:22N 36°37' W 000°35'617.4
2017-Oct-10 19:00N 36°36' W 000°43'1217.5
2017-Oct-10 18:20N 36°33' W 000°57'2017.7
2017-Oct-10 17:14N 36°29' W 001°21'23317.7
2017-Oct-10 04:06N 35°53' W 006°06'217.6
2017-Oct-10 04:00N 35°53' W 006°08'1416.6
2017-Oct-10 03:10N 35°55' W 006°25'916.4
2017-Oct-10 02:36N 35°57' W 006°37'216.3
2017-Oct-10 02:30N 35°57' W 006°39'1816.2
2017-Oct-10 01:23N 35°60' W 007°01'716.8
2017-Oct-10 00:58N 36°01' W 007°09'1017.7
2017-Oct-10 00:22N 36°03' W 007°22'1017.4
2017-Oct-09 23:49N 36°04' W 007°34'617.2
2017-Oct-09 23:29N 36°05' W 007°41'817.3
2017-Oct-09 23:00N 36°06' W 007°51'1017.5
2017-Oct-09 22:27N 36°08' W 008°03'817.3
2017-Oct-09 21:58N 36°09' W 008°13'817.2
2017-Oct-09 21:30N 36°10' W 008°23'917.6
2017-Oct-09 20:59N 36°12' W 008°34'917.6
2017-Oct-09 20:29N 36°13' W 008°45'817.3
2017-Oct-09 20:00N 36°15' W 008°55'917.7
2017-Oct-09 19:31N 36°17' W 009°06'917.8
2017-Oct-09 19:00N 36°19' W 009°16'917.3
2017-Oct-09 18:30N 36°21' W 009°27'816.7
2017-Oct-09 18:00N 36°23' W 009°37'917.5
2017-Oct-09 17:30N 36°25' W 009°47'917.4
2017-Oct-09 17:00N 36°28' W 009°58'917.4
2017-Oct-09 16:30N 36°30' W 010°08'917.3
2017-Oct-09 16:00N 36°33' W 010°18'917.2
2017-Oct-09 15:31N 36°35' W 010°29'917.0
2017-Oct-09 15:00N 36°38' W 010°39'917.4
2017-Oct-09 14:30N 36°40' W 010°49'917.3
2017-Oct-09 14:00N 36°42' W 010°60'917.6
2017-Oct-09 13:30N 36°44' W 011°10'917.2
2017-Oct-09 13:00N 36°46' W 011°21'917.3
2017-Oct-09 12:30N 36°49' W 011°31'917.3
2017-Oct-09 12:00N 36°52' W 011°41'917.1
2017-Oct-09 11:30N 36°54' W 011°52'917.0
2017-Oct-09 11:00N 36°57' W 012°02'78017.0
2017-Oct-07 13:12N 39°52' W 028°11'417.1
2017-Oct-07 12:59N 39°52' W 028°16'1117.2
2017-Oct-07 12:19N 39°53' W 028°31'917.3
2017-Oct-07 11:46N 39°55' W 028°43'1617.0
2017-Oct-07 10:49N 39°57' W 029°04'1917.4
2017-Oct-07 09:45N 39°59' W 029°28'816.9
2017-Oct-07 09:17N 40°00' W 029°38'2417.0
2017-Oct-07 07:52N 40°03' W 030°09'717.1
2017-Oct-07 07:29N 40°03' W 030°18'2817.6
2017-Oct-07 05:52N 40°07' W 030°54'1317.6
2017-Oct-07 05:08N 40°08' W 031°11'217.7
2017-Oct-07 05:00N 40°08' W 031°14'1017.5
2017-Oct-07 04:27N 40°09' W 031°27'817.4
2017-Oct-07 03:58N 40°10' W 031°38'817.6
2017-Oct-07 03:30N 40°11' W 031°48'917.6
2017-Oct-07 03:00N 40°12' W 031°60'1017.4
2017-Oct-07 02:27N 40°13' W 032°13'  
Track history (hours):
 
Tides and Currents Weather Stations Pressure Air Temp Water Temp Dewpoint Dewpoint Depression Visibility Wind Speed Wind Dir Waves Ship Positions

Maersk Shenzhen

Last reported at 2017-Oct-12 14:14 UTC. Time now 2017-Oct-20 01:42 UTC.
Position N 36°27' E 014°42'.

Length 324 m; draft 12.3 m.

Type: Cargo ship. MMSI: 636017474.

Date/timePositionNaut miles runAvg speedWind from/ knotsBaromVisibWave heightAir tempDewpointWater temp
2017-Oct-12 14:14N 36°27' E 014°42'517.6
2017-Oct-12 13:59N 36°28' E 014°36'917.8
2017-Oct-12 13:30N 36°30' E 014°26'918.0
2017-Oct-12 13:00N 36°33' E 014°15'917.9
2017-Oct-12 12:31N 36°36' E 014°05'1217.8
2017-Oct-12 11:51N 36°39' E 013°51'61717.2
2017-Oct-10 23:59N 36°53' E 001°01'816.8
2017-Oct-10 23:30N 36°52' E 000°51'816.5
2017-Oct-10 23:00N 36°50' E 000°41'917.1
2017-Oct-10 22:30N 36°48' E 000°31'917.2
2017-Oct-10 21:57N 36°46' E 000°19'817.3
2017-Oct-10 21:30N 36°45' E 000°10'917.4
2017-Oct-10 21:00N 36°43' W 000°01'1017.4
2017-Oct-10 20:27N 36°41' W 000°13'1317.3
2017-Oct-10 19:43N 36°38' W 000°28'617.4
2017-Oct-10 19:22N 36°37' W 000°35'617.4
2017-Oct-10 19:00N 36°36' W 000°43'1217.5
2017-Oct-10 18:20N 36°33' W 000°57'2017.7
2017-Oct-10 17:14N 36°29' W 001°21'23317.7
2017-Oct-10 04:06N 35°53' W 006°06'217.6
2017-Oct-10 04:00N 35°53' W 006°08'1416.6
2017-Oct-10 03:10N 35°55' W 006°25'916.4
2017-Oct-10 02:36N 35°57' W 006°37'216.3
2017-Oct-10 02:30N 35°57' W 006°39'1816.2
2017-Oct-10 01:23N 35°60' W 007°01'716.8
2017-Oct-10 00:58N 36°01' W 007°09'1017.7
2017-Oct-10 00:22N 36°03' W 007°22'1017.4
2017-Oct-09 23:49N 36°04' W 007°34'617.2
2017-Oct-09 23:29N 36°05' W 007°41'817.3
2017-Oct-09 23:00N 36°06' W 007°51'1017.5
2017-Oct-09 22:27N 36°08' W 008°03'817.3
2017-Oct-09 21:58N 36°09' W 008°13'817.2
2017-Oct-09 21:30N 36°10' W 008°23'917.6
2017-Oct-09 20:59N 36°12' W 008°34'917.6
2017-Oct-09 20:29N 36°13' W 008°45'817.3
2017-Oct-09 20:00N 36°15' W 008°55'917.7
2017-Oct-09 19:31N 36°17' W 009°06'917.8
2017-Oct-09 19:00N 36°19' W 009°16'917.3
2017-Oct-09 18:30N 36°21' W 009°27'816.7
2017-Oct-09 18:00N 36°23' W 009°37'917.5
2017-Oct-09 17:30N 36°25' W 009°47'917.4
2017-Oct-09 17:00N 36°28' W 009°58'917.4
2017-Oct-09 16:30N 36°30' W 010°08'917.3
2017-Oct-09 16:00N 36°33' W 010°18'917.2
2017-Oct-09 15:31N 36°35' W 010°29'917.0
2017-Oct-09 15:00N 36°38' W 010°39'917.4
2017-Oct-09 14:30N 36°40' W 010°49'917.3
2017-Oct-09 14:00N 36°42' W 010°60'917.6
2017-Oct-09 13:30N 36°44' W 011°10'917.2
2017-Oct-09 13:00N 36°46' W 011°21'917.3
2017-Oct-09 12:30N 36°49' W 011°31'917.3
2017-Oct-09 12:00N 36°52' W 011°41'917.1
2017-Oct-09 11:30N 36°54' W 011°52'917.0
2017-Oct-09 11:00N 36°57' W 012°02'78017.0
2017-Oct-07 13:12N 39°52' W 028°11'417.1
2017-Oct-07 12:59N 39°52' W 028°16'1117.2
2017-Oct-07 12:19N 39°53' W 028°31'917.3
2017-Oct-07 11:46N 39°55' W 028°43'1617.0
2017-Oct-07 10:49N 39°57' W 029°04'1917.4
2017-Oct-07 09:45N 39°59' W 029°28'816.9
2017-Oct-07 09:17N 40°00' W 029°38'2417.0
2017-Oct-07 07:52N 40°03' W 030°09'717.1
2017-Oct-07 07:29N 40°03' W 030°18'2817.6
2017-Oct-07 05:52N 40°07' W 030°54'1317.6
2017-Oct-07 05:08N 40°08' W 031°11'217.7
2017-Oct-07 05:00N 40°08' W 031°14'1017.5
2017-Oct-07 04:27N 40°09' W 031°27'817.4
2017-Oct-07 03:58N 40°10' W 031°38'817.6
2017-Oct-07 03:30N 40°11' W 031°48'917.6
2017-Oct-07 03:00N 40°12' W 031°60'1017.4
2017-Oct-07 02:27N 40°13' W 032°13'  

Dump ship's entire track history